createdAt,value
2023-01-17T05:34:13.994Z,100.00
2023-01-17T05:37:17.415Z,100.00
2023-01-17T05:40:21.686Z,100.00
2023-01-17T05:43:24.398Z,100.00
2023-01-17T05:46:27.111Z,100.00
2023-01-17T05:49:29.779Z,100.00
2023-01-17T05:52:32.279Z,100.00
2023-01-17T05:55:35.044Z,100.00
2023-01-17T05:58:38.314Z,100.00
2023-01-17T06:01:40.959Z,100.00
2023-01-17T06:04:43.596Z,100.00
2023-01-17T06:07:46.399Z,100.00
2023-01-17T06:10:49.133Z,100.00
2023-01-17T06:13:51.709Z,100.00
2023-01-17T06:16:54.515Z,100.00
2023-01-17T06:19:57.068Z,100.00
2023-01-17T06:23:01.986Z,100.00
2023-01-17T06:26:04.661Z,100.00
2023-01-17T06:29:07.195Z,100.00
2023-01-17T06:32:09.821Z,100.00
2023-01-17T06:35:12.354Z,100.00
2023-01-17T06:38:14.945Z,100.00
2023-01-17T06:41:17.557Z,100.00
2023-01-17T06:44:20.137Z,100.00
2023-01-17T06:47:22.791Z,100.00
2023-01-17T06:50:26.167Z,100.00
2023-01-17T06:53:28.759Z,100.00
2023-01-17T06:56:32.424Z,100.00
2023-01-17T06:59:35.192Z,100.00
2023-01-17T07:02:39.297Z,100.00
2023-01-17T07:05:41.982Z,100.00
2023-01-17T07:08:44.646Z,100.00
2023-01-17T07:11:47.536Z,100.00
2023-01-17T07:14:50.277Z,100.00
2023-01-17T07:17:52.890Z,100.00
2023-01-17T07:20:56.264Z,100.00
2023-01-17T07:23:58.835Z,100.00
2023-01-17T07:27:01.370Z,100.00
2023-01-17T07:30:04.557Z,100.00
2023-01-17T07:33:07.707Z,100.00
2023-01-17T07:36:12.079Z,100.00
2023-01-17T07:39:14.606Z,100.00
2023-01-17T07:42:17.250Z,100.00
2023-01-17T07:45:21.490Z,100.00
2023-01-17T07:48:24.478Z,100.00
2023-01-17T07:51:27.166Z,100.00
2023-01-17T07:54:29.716Z,100.00
2023-01-17T07:57:33.101Z,100.00
2023-01-17T08:00:35.672Z,100.00
2023-01-17T08:03:41.319Z,100.00
2023-01-17T08:06:47.468Z,100.00
2023-01-17T08:09:50.636Z,100.00
2023-01-17T08:12:53.226Z,100.00
2023-01-17T08:15:57.904Z,100.00
2023-01-17T08:19:01.271Z,100.00
2023-01-17T08:22:03.947Z,100.00
2023-01-17T08:25:06.729Z,100.00
2023-01-17T08:28:09.248Z,100.00
2023-01-17T08:31:11.863Z,100.00
2023-01-17T08:34:18.172Z,100.00
2023-01-17T08:37:20.758Z,100.00
2023-01-17T08:40:23.795Z,100.00
2023-01-17T08:43:27.079Z,100.00
2023-01-17T08:46:32.820Z,100.00
2023-01-17T08:49:35.738Z,100.00
2023-01-17T08:52:38.325Z,100.00
2023-01-17T08:55:41.157Z,100.00
2023-01-17T08:58:43.712Z,100.00
2023-01-17T09:01:46.431Z,100.00
2023-01-17T09:04:49.464Z,100.00
2023-01-17T09:07:52.001Z,100.00
2023-01-17T09:10:54.545Z,100.00
2023-01-17T09:13:57.064Z,100.00
2023-01-17T09:17:00.121Z,100.00
2023-01-17T09:20:02.844Z,100.00
2023-01-17T09:23:05.427Z,100.00
2023-01-17T09:26:08.093Z,100.00
2023-01-17T09:29:10.595Z,100.00
2023-01-17T09:32:13.202Z,100.00
2023-01-17T09:35:18.505Z,100.00
2023-01-17T09:38:21.849Z,100.00
2023-01-17T09:41:31.137Z,100.00
2023-01-17T09:44:51.708Z,100.00
2023-01-17T09:47:54.333Z,100.00
2023-01-17T09:51:00.581Z,100.00
2023-01-17T09:54:03.682Z,100.00
2023-01-17T09:57:13.805Z,99.93
2023-01-17T10:00:34.874Z,100.00
2023-01-17T10:04:15.752Z,98.48
2023-01-17T10:07:53.144Z,97.74
2023-01-17T10:11:07.902Z,97.22
2023-01-17T10:14:41.637Z,96.07
2023-01-17T10:18:01.406Z,96.93
2023-01-17T10:21:19.336Z,96.89
2023-01-17T10:24:43.018Z,94.30
2023-01-17T10:27:59.253Z,93.63
2023-01-17T10:31:07.276Z,94.89
2023-01-17T10:34:18.980Z,93.84
2023-01-17T10:37:42.685Z,92.47
2023-01-17T10:40:50.373Z,92.55
2023-01-17T10:43:58.977Z,93.01
2023-01-17T10:47:10.577Z,93.33
2023-01-17T10:50:16.627Z,93.03
2023-01-17T10:53:35.514Z,93.99
2023-01-17T10:56:38.093Z,93.14
2023-01-17T10:59:40.711Z,90.43
2023-01-17T11:02:43.441Z,92.51
2023-01-17T11:05:46.033Z,89.91
2023-01-17T11:08:58.307Z,89.98
2023-01-17T11:12:00.903Z,91.38
2023-01-17T11:15:06.206Z,88.76
2023-01-17T11:18:13.757Z,91.38
2023-01-17T11:21:21.300Z,92.67
2023-01-17T11:24:31.462Z,92.07
2023-01-17T11:27:35.293Z,91.12
2023-01-17T11:30:37.766Z,89.65
2023-01-17T11:33:48.261Z,89.65
2023-01-17T11:37:10.802Z,90.64
2023-01-17T11:40:26.116Z,89.30
2023-01-17T11:43:28.706Z,91.75
2023-01-17T11:46:32.332Z,90.86
2023-01-17T11:49:34.950Z,90.51
2023-01-17T11:52:39.234Z,88.41
2023-01-17T11:56:01.247Z,90.40
2023-01-17T11:59:12.649Z,86.60
2023-01-17T12:02:43.344Z,85.31
2023-01-17T12:05:47.263Z,84.85
2023-01-17T12:09:23.130Z,86.94
2023-01-17T12:12:49.393Z,86.93
2023-01-17T12:16:00.149Z,86.34
2023-01-17T12:19:39.078Z,85.33
2023-01-17T12:22:45.651Z,84.61
2023-01-17T12:25:49.867Z,81.42
2023-01-17T12:28:58.317Z,81.30
2023-01-17T12:32:28.523Z,82.39
2023-01-17T12:35:38.828Z,82.85
2023-01-17T12:38:41.374Z,84.75
2023-01-17T12:41:59.543Z,84.45
2023-01-17T12:45:12.275Z,82.77
2023-01-17T12:48:22.864Z,83.02
2023-01-17T12:51:30.126Z,83.75
2023-01-17T12:54:41.159Z,84.57
2023-01-17T12:57:46.668Z,83.62
2023-01-17T13:00:56.912Z,80.90
2023-01-17T13:04:24.226Z,80.80
2023-01-17T13:07:49.774Z,83.61
2023-01-17T13:11:05.220Z,82.32
2023-01-17T13:14:09.407Z,83.09
2023-01-17T13:17:26.672Z,84.79
2023-01-17T13:20:50.707Z,83.76
2023-01-17T13:24:07.839Z,84.21
2023-01-17T13:27:20.086Z,82.78
2023-01-17T13:30:35.494Z,84.68
2023-01-17T13:33:59.669Z,83.00
2023-01-17T13:37:08.098Z,82.97
2023-01-17T13:40:49.543Z,83.35
2023-01-17T13:44:10.702Z,86.15
2023-01-17T13:47:19.370Z,84.02
2023-01-17T13:50:47.464Z,82.52
2023-01-17T13:53:50.121Z,84.22
2023-01-17T13:56:52.816Z,83.78
2023-01-17T14:00:21.435Z,85.06
2023-01-17T14:03:49.159Z,84.50
2023-01-17T14:06:54.029Z,83.89
2023-01-17T14:09:56.525Z,83.52
2023-01-17T14:12:59.143Z,82.78
2023-01-17T14:16:02.450Z,84.13
2023-01-17T14:19:05.083Z,84.01
2023-01-17T14:22:28.022Z,85.10
2023-01-17T14:25:40.579Z,85.21
2023-01-17T14:28:43.100Z,84.68
2023-01-17T14:31:45.809Z,85.75
2023-01-17T14:34:50.502Z,85.06
2023-01-17T14:37:53.455Z,85.36
2023-01-17T14:41:09.807Z,86.39
2023-01-17T14:44:12.424Z,86.25
2023-01-17T14:47:15.216Z,85.21
2023-01-17T14:50:29.563Z,86.53
2023-01-17T14:53:33.372Z,87.34
2023-01-17T14:56:35.969Z,86.40
2023-01-17T14:59:38.546Z,85.25
2023-01-17T15:02:43.328Z,85.04
2023-01-17T15:05:47.723Z,84.55
2023-01-17T15:08:51.978Z,85.74
2023-01-17T15:11:54.681Z,86.13
2023-01-17T15:14:58.851Z,86.07
2023-01-17T15:18:19.514Z,85.77
2023-01-17T15:21:27.324Z,85.61
2023-01-17T15:24:34.665Z,85.48
2023-01-17T15:27:37.454Z,85.86
2023-01-17T15:31:09.605Z,85.67
2023-01-17T15:34:31.606Z,85.94
2023-01-17T15:37:36.649Z,86.77
2023-01-17T15:40:43.620Z,86.11
2023-01-17T15:43:46.217Z,86.79
2023-01-17T15:46:48.900Z,86.48
2023-01-17T15:49:51.940Z,86.38
2023-01-17T15:52:56.194Z,85.73
2023-01-17T15:55:59.100Z,86.09
2023-01-17T15:59:40.879Z,85.79
2023-01-17T16:02:44.116Z,86.28
2023-01-17T16:05:47.054Z,85.93
2023-01-17T16:08:52.749Z,86.07
2023-01-17T16:11:55.355Z,86.20
2023-01-17T16:15:11.341Z,85.14
